createdAt,value
2019-03-10T00:02:11.367Z,97127.36
2019-03-10T00:05:17.754Z,97129.00
2019-03-10T00:08:24.897Z,97119.61
2019-03-10T00:11:31.851Z,97127.77
2019-03-10T00:14:38.450Z,97133.89
2019-03-10T00:17:45.332Z,97123.94
2019-03-10T00:20:51.821Z,97129.67
2019-03-10T00:23:58.320Z,97119.29
2019-03-10T00:27:05.264Z,97098.64
2019-03-10T00:30:12.065Z,97104.89
2019-03-10T00:33:18.715Z,97099.56
2019-03-10T00:36:25.507Z,97093.64
2019-03-10T00:40:07.141Z,97085.08
2019-03-10T00:44:05.987Z,97086.12
2019-03-10T00:48:02.307Z,97081.07
2019-03-10T00:51:31.685Z,97081.75
2019-03-10T00:54:38.434Z,97078.45
2019-03-10T00:57:45.128Z,97077.97
2019-03-10T01:00:52.441Z,97083.06
2019-03-10T01:03:58.707Z,97077.17
2019-03-10T01:07:05.060Z,97082.50
2019-03-10T01:10:11.652Z,97081.03
2019-03-10T01:13:19.915Z,97081.78
2019-03-10T01:16:26.742Z,97088.18
2019-03-10T01:19:34.338Z,97090.61
2019-03-10T01:22:41.900Z,97096.53
2019-03-10T01:25:48.704Z,97098.40
2019-03-10T01:28:55.056Z,97091.92
2019-03-10T01:32:37.138Z,97085.31
2019-03-10T01:35:43.772Z,97079.86
2019-03-10T01:38:50.361Z,97073.26
2019-03-10T01:41:57.713Z,97055.62
2019-03-10T01:45:04.836Z,97051.05
2019-03-10T01:48:11.320Z,97036.62
2019-03-10T01:51:17.974Z,97023.70
2019-03-10T01:54:24.700Z,97029.11
2019-03-10T01:57:31.665Z,97029.19
2019-03-10T02:00:38.432Z,97025.25
2019-03-10T02:03:45.510Z,97018.50
2019-03-10T02:06:52.029Z,97010.47
2019-03-10T02:09:58.997Z,97000.41
2019-03-10T02:13:06.767Z,96999.45
2019-03-10T02:16:13.960Z,96996.83
2019-03-10T02:19:20.764Z,96991.30
2019-03-10T02:22:27.367Z,96986.89
2019-03-10T02:25:34.122Z,96988.08
2019-03-10T02:28:40.490Z,96983.05
2019-03-10T02:31:48.130Z,96970.38
2019-03-10T02:34:55.007Z,96981.73
2019-03-10T02:38:02.068Z,96983.91
2019-03-10T02:41:08.883Z,96978.11
2019-03-10T02:44:15.760Z,96974.22
2019-03-10T02:47:22.649Z,96970.48
2019-03-10T02:50:29.685Z,96961.73
2019-03-10T02:53:36.017Z,96957.66
2019-03-10T02:56:42.799Z,96946.93
2019-03-10T02:59:49.608Z,96942.04
2019-03-10T03:02:56.257Z,96929.05
2019-03-10T03:06:02.608Z,96926.62
2019-03-10T03:09:09.369Z,96923.58
2019-03-10T03:12:15.838Z,96896.89
2019-03-10T03:15:22.876Z,96898.03
2019-03-10T03:18:29.793Z,96901.69
2019-03-10T03:21:43.560Z,96890.19
2019-03-10T03:24:46.812Z,96875.87
2019-03-10T03:27:53.286Z,96868.21
2019-03-10T03:30:59.576Z,96881.83
2019-03-10T03:34:05.990Z,96873.93
2019-03-10T03:37:15.966Z,96856.80
2019-03-10T03:40:22.831Z,96854.48
2019-03-10T03:43:29.256Z,96839.34
2019-03-10T03:46:36.538Z,96833.77
2019-03-10T03:49:43.024Z,96841.05
2019-03-10T03:52:49.581Z,96840.50
2019-03-10T03:55:56.564Z,96830.35
2019-03-10T03:59:02.854Z,96825.17
2019-03-10T04:02:13.098Z,96820.80
2019-03-10T04:05:20.224Z,96814.33
2019-03-10T04:08:26.871Z,96797.09
2019-03-10T04:11:33.541Z,96790.61
2019-03-10T04:14:41.099Z,96789.73
2019-03-10T04:17:47.860Z,96793.22
2019-03-10T04:20:54.490Z,96779.45
2019-03-10T04:24:01.121Z,96781.96
2019-03-10T04:27:08.921Z,96781.75
2019-03-10T04:30:15.848Z,96790.16
2019-03-10T04:33:22.542Z,96783.33
2019-03-10T04:36:29.005Z,96784.30
2019-03-10T04:39:35.335Z,96779.60
2019-03-10T04:42:41.779Z,96780.44
2019-03-10T04:45:48.102Z,96776.23
2019-03-10T04:48:58.861Z,96777.34
2019-03-10T04:52:05.477Z,96769.61
2019-03-10T04:55:23.776Z,96767.33
2019-03-10T04:58:30.335Z,96769.08
2019-03-10T05:01:37.464Z,96767.23
2019-03-10T05:04:44.095Z,96765.75
2019-03-10T05:07:50.518Z,96749.13
2019-03-10T05:10:57.298Z,96753.93
2019-03-10T05:14:04.156Z,96741.45
2019-03-10T05:17:10.981Z,96738.33
2019-03-10T05:20:17.489Z,96732.08
2019-03-10T05:23:45.419Z,96723.71
2019-03-10T05:26:52.510Z,96705.78
2019-03-10T05:29:59.255Z,96699.12
2019-03-10T05:33:05.736Z,96698.36
2019-03-10T05:36:12.763Z,96685.53
2019-03-10T05:39:19.585Z,96681.26
2019-03-10T05:42:25.976Z,96674.03
2019-03-10T05:45:32.744Z,96647.88
2019-03-10T05:48:39.203Z,96631.06
2019-03-10T05:51:45.587Z,96625.35
2019-03-10T05:54:51.893Z,96635.13
2019-03-10T05:57:58.594Z,96641.05
2019-03-10T06:01:04.983Z,96628.50
2019-03-10T06:04:11.214Z,96620.66
2019-03-10T06:07:17.720Z,96622.09
2019-03-10T06:10:24.225Z,96622.09
2019-03-10T06:13:30.889Z,96633.34
2019-03-10T06:16:37.857Z,96626.05
2019-03-10T06:19:44.553Z,96615.75
2019-03-10T06:22:51.283Z,96612.05
2019-03-10T06:25:57.896Z,96608.31
2019-03-10T06:29:04.723Z,96594.47
2019-03-10T06:32:11.266Z,96592.67
2019-03-10T06:35:17.911Z,96579.09
2019-03-10T06:38:24.855Z,96585.55
2019-03-10T06:41:34.503Z,96575.76
2019-03-10T06:44:40.900Z,96571.27
2019-03-10T06:47:47.585Z,96561.58
2019-03-10T06:50:53.946Z,96561.48
2019-03-10T06:54:00.681Z,96544.93
2019-03-10T06:57:07.731Z,96538.25
2019-03-10T07:00:14.578Z,96531.70
2019-03-10T07:03:21.311Z,96527.28
2019-03-10T07:06:27.917Z,96527.82
2019-03-10T07:09:34.847Z,96520.70
2019-03-10T07:12:41.395Z,96501.91
2019-03-10T07:15:48.500Z,96495.45
2019-03-10T07:18:55.520Z,96484.45
2019-03-10T07:22:02.472Z,96482.26
2019-03-10T07:25:09.247Z,96478.45
2019-03-10T07:28:21.528Z,96472.04
2019-03-10T07:31:46.186Z,96457.05
2019-03-10T07:35:26.839Z,96449.28
2019-03-10T07:38:54.786Z,96434.03
2019-03-10T07:42:20.389Z,96420.31
2019-03-10T07:45:42.889Z,96413.86
2019-03-10T07:49:07.633Z,96397.62
2019-03-10T07:52:39.468Z,96393.02
2019-03-10T07:56:08.108Z,96380.20
2019-03-10T07:59:45.866Z,96355.75
2019-03-10T08:03:11.575Z,96347.35
2019-03-10T08:06:27.693Z,96350.83
2019-03-10T08:09:59.120Z,96336.77
2019-03-10T08:13:11.405Z,96331.55
2019-03-10T08:16:36.880Z,96328.48
2019-03-10T08:20:05.771Z,96316.18
2019-03-10T08:23:22.941Z,96314.64
2019-03-10T08:26:48.757Z,96293.70
2019-03-10T08:30:08.252Z,96274.05
2019-03-10T08:33:31.942Z,96266.69
2019-03-10T08:36:48.747Z,96254.38
2019-03-10T08:40:17.605Z,96249.14
2019-03-10T08:44:01.648Z,96235.92
2019-03-10T08:47:34.186Z,96219.42
2019-03-10T08:50:47.022Z,96213.00
2019-03-10T08:54:24.873Z,96183.27
2019-03-10T08:57:50.343Z,96166.55
2019-03-10T09:01:21.876Z,96167.66
2019-03-10T09:04:46.900Z,96158.17
2019-03-10T09:08:13.476Z,96144.07
2019-03-10T09:11:39.902Z,96133.67
2019-03-10T09:14:55.439Z,96106.97
2019-03-10T09:18:33.732Z,96095.16
2019-03-10T09:21:52.034Z,96090.80
2019-03-10T09:25:24.370Z,96078.61
2019-03-10T09:29:08.904Z,96066.56
2019-03-10T09:32:39.399Z,96055.70
2019-03-10T09:36:02.191Z,96048.94
2019-03-10T09:39:30.103Z,96034.69
2019-03-10T09:43:08.988Z,96018.45
2019-03-10T09:46:24.897Z,96007.27
2019-03-10T09:49:41.240Z,96004.88
2019-03-10T09:53:05.473Z,95991.39
2019-03-10T09:56:40.006Z,95981.55
2019-03-10T10:00:09.244Z,95968.46
2019-03-10T10:03:31.070Z,95970.44
2019-03-10T10:06:57.329Z,95974.59
2019-03-10T10:13:45.061Z,95962.03
2019-03-10T10:17:10.076Z,95961.51
2019-03-10T10:20:38.921Z,95964.57
2019-03-10T10:24:04.163Z,95958.79
2019-03-10T10:27:35.464Z,95951.17
2019-03-10T10:30:55.342Z,95941.30
2019-03-10T10:34:36.867Z,95932.54
2019-03-10T10:38:02.613Z,95919.39
2019-03-10T10:41:29.116Z,95921.97
2019-03-10T10:44:56.190Z,95926.83
2019-03-10T10:48:26.106Z,95929.95
2019-03-10T10:51:52.484Z,95926.56
2019-03-10T10:55:11.010Z,95908.23
2019-03-10T10:58:34.373Z,95913.53
2019-03-10T11:01:48.203Z,95926.94
2019-03-10T11:05:06.106Z,95917.03
2019-03-10T11:08:36.135Z,95914.91
2019-03-10T11:12:20.311Z,95925.61
2019-03-10T11:15:44.876Z,95923.42
2019-03-10T11:19:01.620Z,95897.44
2019-03-10T11:22:33.609Z,95886.05
2019-03-10T11:26:01.990Z,95890.22
2019-03-10T11:29:19.008Z,95869.50
2019-03-10T11:32:42.569Z,95853.47
2019-03-10T11:35:57.112Z,95846.67
2019-03-10T11:39:29.343Z,95850.91
2019-03-10T11:42:42.158Z,95865.24
2019-03-10T11:46:22.686Z,95880.50
2019-03-10T11:50:04.203Z,95870.37
2019-03-10T11:53:19.437Z,95842.92
2019-03-10T11:56:32.603Z,95817.19
2019-03-10T11:59:44.632Z,95823.84
2019-03-10T12:03:02.588Z,95825.96
2019-03-10T12:06:30.795Z,95787.48
2019-03-10T12:09:37.740Z,95784.52
2019-03-10T12:12:46.245Z,95778.06
2019-03-10T12:15:53.319Z,95770.77
2019-03-10T12:19:01.075Z,95753.59
2019-03-10T12:22:09.052Z,95758.61
2019-03-10T12:25:16.566Z,95741.92
2019-03-10T12:28:25.412Z,95735.64
2019-03-10T12:31:40.645Z,95744.04
2019-03-10T12:34:47.720Z,95748.80
2019-03-10T12:37:58.161Z,95755.14
2019-03-10T12:41:06.280Z,95752.68
2019-03-10T12:44:13.429Z,95728.90
2019-03-10T12:47:20.331Z,95720.79
2019-03-10T12:50:27.101Z,95707.23
2019-03-10T12:53:33.966Z,95694.97
2019-03-10T12:56:41.078Z,95730.22
2019-03-10T12:59:48.559Z,95685.05
2019-03-10T13:02:55.448Z,95684.81
2019-03-10T13:06:02.971Z,95671.48
2019-03-10T13:09:11.331Z,95680.66
2019-03-10T13:12:18.616Z,95679.45
2019-03-10T13:15:25.787Z,95697.31
2019-03-10T13:18:32.643Z,95711.63
2019-03-10T13:21:44.151Z,95700.94
2019-03-10T13:24:51.510Z,95703.03
2019-03-10T13:27:58.668Z,95683.02
2019-03-10T13:31:05.591Z,95660.80
2019-03-10T13:34:14.216Z,95678.92
2019-03-10T13:37:21.565Z,95688.77
2019-03-10T13:40:29.058Z,95689.42
2019-03-10T13:43:36.221Z,95689.31
2019-03-10T13:46:44.107Z,95693.40
2019-03-10T13:49:54.995Z,95701.56
2019-03-10T13:53:02.023Z,95694.82
2019-03-10T13:56:09.620Z,95676.48
2019-03-10T13:59:16.622Z,95667.23
2019-03-10T14:02:23.222Z,95682.30
2019-03-10T14:05:32.217Z,95665.05
2019-03-10T14:08:39.007Z,95661.73
2019-03-10T14:11:46.258Z,95647.69
2019-03-10T14:14:53.000Z,95650.50
2019-03-10T14:18:01.235Z,95655.77
2019-03-10T14:21:09.103Z,95657.39
2019-03-10T14:24:15.879Z,95657.63
2019-03-10T14:27:22.927Z,95662.50
2019-03-10T14:30:30.644Z,95670.48
2019-03-10T14:33:37.830Z,95684.75
2019-03-10T14:36:45.325Z,95657.48
2019-03-10T14:39:55.331Z,95666.91
2019-03-10T14:43:05.366Z,95676.98
2019-03-10T14:46:15.931Z,95726.06
2019-03-10T14:49:23.738Z,95714.30
2019-03-10T14:52:31.959Z,95723.66
2019-03-10T14:55:39.864Z,95731.39
2019-03-10T14:58:46.259Z,95745.17
2019-03-10T15:01:54.211Z,95751.86
2019-03-10T15:05:02.129Z,95729.88
2019-03-10T15:08:11.217Z,95737.03
2019-03-10T15:11:19.692Z,95728.98
2019-03-10T15:14:28.436Z,95713.44
2019-03-10T15:17:36.867Z,95727.38
2019-03-10T15:20:46.567Z,95736.12
2019-03-10T15:23:55.102Z,95747.60
2019-03-10T15:27:04.375Z,95776.33
2019-03-10T15:30:17.088Z,95782.59
2019-03-10T15:33:25.491Z,95796.04
2019-03-10T15:36:33.043Z,95792.59
2019-03-10T15:39:42.076Z,95781.89
2019-03-10T15:42:49.704Z,95786.16
2019-03-10T15:45:58.075Z,95794.23
2019-03-10T15:49:08.181Z,95755.89
2019-03-10T15:52:14.849Z,95773.70
2019-03-10T15:55:23.841Z,95762.02
2019-03-10T15:58:31.192Z,95773.97
2019-03-10T16:01:48.646Z,95782.98
2019-03-10T16:05:00.444Z,95784.95
2019-03-10T16:08:09.321Z,95783.55
2019-03-10T16:11:18.328Z,95793.83
2019-03-10T16:14:26.260Z,95794.81
2019-03-10T16:17:34.530Z,95796.96
2019-03-10T16:20:41.641Z,95821.32
2019-03-10T16:23:48.980Z,95863.51
2019-03-10T16:27:00.705Z,95892.12
2019-03-10T16:30:14.824Z,95871.07
2019-03-10T16:33:25.422Z,95856.92
2019-03-10T16:36:32.998Z,95874.67
2019-03-10T16:39:40.969Z,95876.28
2019-03-10T16:42:48.905Z,95897.52
2019-03-10T16:45:56.506Z,95912.66
2019-03-10T16:49:03.943Z,95948.41
2019-03-10T16:52:16.232Z,95954.48
2019-03-10T16:55:28.086Z,95988.98
2019-03-10T16:58:38.845Z,95973.78
2019-03-10T17:01:47.157Z,95978.89
2019-03-10T17:04:54.298Z,95935.34
2019-03-10T17:08:05.720Z,95980.84
2019-03-10T17:11:15.590Z,95992.41
2019-03-10T17:14:24.470Z,95996.48
2019-03-10T17:17:31.538Z,96015.45
2019-03-10T17:20:38.719Z,96005.84
2019-03-10T17:23:45.508Z,95998.34
2019-03-10T17:26:52.555Z,95993.72
2019-03-10T17:29:59.348Z,96001.19
2019-03-10T17:33:06.221Z,96011.78
2019-03-10T17:36:12.937Z,96005.75
2019-03-10T17:39:20.818Z,96074.13
2019-03-10T17:42:27.873Z,96032.03
2019-03-10T17:45:34.382Z,96064.05
2019-03-10T17:48:40.907Z,96055.94
2019-03-10T17:51:48.850Z,96084.27
2019-03-10T17:54:55.917Z,96085.81
2019-03-10T17:58:02.710Z,96106.30
2019-03-10T18:01:10.299Z,96133.93
2019-03-10T18:04:19.677Z,96124.70
2019-03-10T18:07:31.721Z,96148.09
2019-03-10T18:10:40.236Z,96121.63
2019-03-10T18:13:56.686Z,96124.68
2019-03-10T18:17:05.334Z,96154.02
2019-03-10T18:20:15.267Z,96145.33
2019-03-10T18:23:25.865Z,96144.73
2019-03-10T18:26:37.506Z,96155.05
2019-03-10T18:29:47.985Z,96162.47
2019-03-10T18:33:00.853Z,96156.02
2019-03-10T18:36:08.724Z,96173.19
2019-03-10T18:39:20.313Z,96175.98
2019-03-10T18:42:34.253Z,96175.02
2019-03-10T18:45:51.901Z,96212.05
2019-03-10T18:49:03.117Z,96200.64
2019-03-10T18:52:16.560Z,96206.78
2019-03-10T18:55:27.194Z,96201.53
2019-03-10T18:58:36.694Z,96238.92
2019-03-10T19:01:50.400Z,96254.05
2019-03-10T19:05:02.666Z,96282.45
2019-03-10T19:08:15.111Z,96306.14
2019-03-10T19:11:27.217Z,96331.48
2019-03-10T19:14:37.513Z,96338.49
2019-03-10T19:17:44.188Z,96350.81
2019-03-10T19:20:50.770Z,96343.33
2019-03-10T19:23:57.574Z,96362.80
2019-03-10T19:27:04.710Z,96389.21
2019-03-10T19:30:13.863Z,96397.14
2019-03-10T19:33:20.356Z,96424.97
2019-03-10T19:36:30.221Z,96449.34
2019-03-10T19:39:37.694Z,96499.45
2019-03-10T19:42:44.655Z,96488.81
2019-03-10T19:45:51.996Z,96501.48
2019-03-10T19:48:59.271Z,96532.34
2019-03-10T19:52:06.801Z,96542.04
2019-03-10T19:55:19.878Z,96524.95
2019-03-10T19:58:27.038Z,96566.41
2019-03-10T20:01:36.526Z,96563.70
2019-03-10T20:04:44.207Z,96613.17
2019-03-10T20:07:51.778Z,96614.67
2019-03-10T20:10:58.486Z,96626.70
2019-03-10T20:14:06.081Z,96642.39
2019-03-10T20:17:12.596Z,96649.55
2019-03-10T20:20:21.944Z,96675.66
2019-03-10T20:23:30.420Z,96686.15
2019-03-10T20:26:37.733Z,96675.94
2019-03-10T20:29:44.802Z,96682.91
2019-03-10T20:32:51.567Z,96677.34
2019-03-10T20:35:58.176Z,96690.16
2019-03-10T20:39:09.020Z,96713.17
2019-03-10T20:42:17.486Z,96711.88
2019-03-10T20:45:24.650Z,96717.02
2019-03-10T20:48:31.701Z,96721.87
2019-03-10T20:51:41.590Z,96738.03
2019-03-10T20:54:48.715Z,96742.70
2019-03-10T20:57:55.717Z,96740.48
2019-03-10T21:01:02.747Z,96749.61
2019-03-10T21:04:09.467Z,96763.69
2019-03-10T21:07:15.771Z,96770.03
2019-03-10T21:10:27.542Z,96772.45
2019-03-10T21:13:34.592Z,96778.27
2019-03-10T21:16:41.606Z,96794.91
2019-03-10T21:19:48.932Z,96795.62
2019-03-10T21:22:56.239Z,96809.94
2019-03-10T21:26:03.453Z,96820.28
2019-03-10T21:29:11.432Z,96842.16
2019-03-10T21:32:17.963Z,96847.42
2019-03-10T21:35:25.884Z,96853.84
2019-03-10T21:38:32.422Z,96871.89
2019-03-10T21:41:42.043Z,96865.45
2019-03-10T21:44:48.831Z,96857.66
2019-03-10T21:47:56.159Z,96862.89
2019-03-10T21:51:03.257Z,96866.08
2019-03-10T21:54:10.163Z,96873.38
2019-03-10T21:57:16.770Z,96873.05
2019-03-10T22:00:24.789Z,96881.03
2019-03-10T22:03:31.962Z,96892.56
2019-03-10T22:06:42.708Z,96899.87
2019-03-10T22:09:50.874Z,96931.18
2019-03-10T22:12:58.157Z,96939.55
2019-03-10T22:16:04.811Z,96959.40
2019-03-10T22:19:21.929Z,96972.48
2019-03-10T22:22:19.897Z,96970.66
2019-03-10T22:25:26.993Z,96979.31
2019-03-10T22:28:33.270Z,96984.76
2019-03-10T22:31:40.062Z,96993.20
2019-03-10T22:34:47.110Z,97016.52
2019-03-10T22:37:53.977Z,96982.83
2019-03-10T22:41:00.693Z,96998.77
2019-03-10T22:44:07.171Z,97006.00
2019-03-10T22:47:14.091Z,97016.38
2019-03-10T22:50:20.998Z,97018.88
2019-03-10T22:53:28.201Z,97020.11
2019-03-10T22:56:35.750Z,97018.47
2019-03-10T22:59:42.537Z,97027.39
2019-03-10T23:02:49.136Z,97035.09
2019-03-10T23:05:55.732Z,97039.20
2019-03-10T23:09:02.253Z,97040.22
2019-03-10T23:12:10.740Z,97040.38
2019-03-10T23:15:17.617Z,97043.50
2019-03-10T23:18:24.217Z,97030.87
2019-03-10T23:21:32.049Z,97023.18
2019-03-10T23:24:39.186Z,97025.47
2019-03-10T23:27:45.397Z,97031.75
2019-03-10T23:30:52.278Z,97044.34
2019-03-10T23:33:58.976Z,97051.77
2019-03-10T23:37:05.463Z,97059.69
2019-03-10T23:40:12.205Z,97056.15
2019-03-10T23:43:18.615Z,97058.86
2019-03-10T23:46:25.449Z,97074.55
2019-03-10T23:49:32.289Z,97079.58
2019-03-10T23:52:39.130Z,97091.02
2019-03-10T23:55:45.839Z,97100.25
2019-03-10T23:58:52.482Z,97121.30
